Pleasant View, Tennessee
Current Conditions -  °F | °C
As of 4:35 PM on Monday 26 Jan 2015 (Local Time) from KM91 Reporting Station
Broken Clouds Broken Clouds  
Wind Chill: 34°   Ceiling: 4300
Heat Index: 34°   Visibility: 10mi
Dew Point: 30°   Wind: 3mph
Humidity: 87%   Direction: 360°N
Pressure: 29.97"   Gusts: NA
Location:  36.39°N, 87.04°W
Report Text: KM91 262235Z AUTO 36003KT 10SM FEW028 SCT036 BKN043 01/M01 A2997 RMK
Loading
Personal Weather Stations






























Interactive Weather Map New forecast layout! Learn more

10-Day Weather Forecast

Advertisements
Track Severe Weather on mobile